Time;durP1;ratioP1;P1;durP2;ratioP2;P2;SDS_P1;SDS_P2;PMS_P1;PMS_P2;Temp;Humidity;BMP_temperature;BMP_pressure;BME280_temperature;BME280_humidity;BME280_pressure;Samples;Min_cycle;Max_cycle;Signal;HPM_P1;HPM_P2
2023/03/04 00:02:14;;;;;;;8.75;4.30;;;0.00;98.60;;;;;;4925154;29;20028;-80
2023/03/04 00:04:42;;;;;;;8.75;4.03;;;-0.10;98.60;;;;;;4937213;29;20370;-80
2023/03/04 00:07:08;;;;;;;7.95;3.55;;;0.00;98.70;;;;;;4937078;29;20087;-79
2023/03/04 00:09:34;;;;;;;5.80;3.72;;;-0.10;98.70;;;;;;4942567;29;20074;-78
2023/03/04 00:12:00;;;;;;;9.93;3.42;;;-0.10;98.80;;;;;;4937332;29;20027;-81
2023/03/04 00:14:26;;;;;;;5.10;3.65;;;-0.10;98.80;;;;;;4923709;29;20024;-78
2023/03/04 00:16:52;;;;;;;6.22;3.70;;;-0.10;98.90;;;;;;4934530;29;20023;-79
2023/03/04 00:19:18;;;;;;;6.72;4.00;;;-0.10;98.90;;;;;;4940148;29;20084;-80
2023/03/04 00:21:43;;;;;;;5.03;3.80;;;-0.10;99.00;;;;;;4935514;29;20425;-78
2023/03/04 00:24:09;;;;;;;6.38;4.43;;;-0.10;99.10;;;;;;4945768;29;20054;-78
2023/03/04 00:26:35;;;;;;;7.13;3.60;;;-0.10;99.10;;;;;;4937353;29;20020;-78
2023/03/04 00:29:01;;;;;;;10.00;5.25;;;-0.10;99.10;;;;;;4938389;29;20087;-79
2023/03/04 00:31:27;;;;;;;6.45;3.83;;;-0.10;99.10;;;;;;4921762;29;20028;-79
2023/03/04 00:33:53;;;;;;;6.25;3.97;;;-0.10;99.20;;;;;;4922384;29;20500;-80
2023/03/04 00:36:19;;;;;;;7.15;4.35;;;0.00;99.20;;;;;;4939310;29;20038;-80
2023/03/04 00:38:48;;;;;;;8.75;4.45;;;-0.10;99.20;;;;;;4937565;29;20039;-79
2023/03/04 00:41:13;;;;;;;6.72;3.85;;;0.00;99.30;;;;;;4941623;29;20015;-80
2023/03/04 00:43:39;;;;;;;8.85;4.15;;;-0.10;99.20;;;;;;4938183;29;20042;-79
2023/03/04 00:46:05;;;;;;;5.55;3.80;;;0.00;99.30;;;;;;4936802;29;20060;-79
2023/03/04 00:48:31;;;;;;;7.95;4.25;;;0.00;99.30;;;;;;4929293;29;20044;-80
2023/03/04 00:50:57;;;;;;;6.30;3.38;;;0.00;99.30;;;;;;4936149;29;21740;-78
2023/03/04 00:53:23;;;;;;;9.52;4.60;;;-0.10;99.20;;;;;;4932017;29;20064;-81
2023/03/04 00:55:49;;;;;;;7.55;3.97;;;-0.10;99.30;;;;;;4924327;29;20043;-80
2023/03/04 00:58:18;;;;;;;7.38;4.07;;;-0.10;99.40;;;;;;4941232;29;20027;-78
2023/03/04 01:00:43;;;;;;;8.82;4.18;;;-0.10;99.50;;;;;;4944727;29;20028;-79
2023/03/04 01:03:09;;;;;;;7.45;5.15;;;-0.10;99.50;;;;;;4938252;29;20031;-79
2023/03/04 01:05:35;;;;;;;6.18;4.65;;;0.00;99.50;;;;;;4935829;29;20020;-79
2023/03/04 01:08:02;;;;;;;11.05;4.65;;;0.00;99.50;;;;;;4936318;29;20486;-79
2023/03/04 01:10:28;;;;;;;6.65;5.50;;;0.00;99.40;;;;;;4951059;29;20028;-78
2023/03/04 01:12:54;;;;;;;5.35;3.67;;;0.00;99.40;;;;;;4941191;29;20036;-77
2023/03/04 01:15:20;;;;;;;6.22;4.10;;;0.00;99.40;;;;;;4930925;29;20020;-78
2023/03/04 01:17:45;;;;;;;6.55;4.28;;;0.00;99.40;;;;;;4934244;29;20047;-77
2023/03/04 01:20:12;;;;;;;9.38;4.45;;;0.00;99.50;;;;;;4936427;29;20026;-77
2023/03/04 01:22:38;;;;;;;7.40;4.97;;;0.10;99.40;;;;;;4936421;29;20039;-78
2023/03/04 01:25:05;;;;;;;7.30;5.63;;;0.00;99.40;;;;;;4934679;29;20118;-77
2023/03/04 01:27:31;;;;;;;6.80;4.43;;;0.10;99.50;;;;;;4935459;29;20042;-79
2023/03/04 01:29:57;;;;;;;6.75;4.28;;;0.10;99.50;;;;;;4936194;29;20027;-80
2023/03/04 01:32:22;;;;;;;8.95;5.10;;;0.10;99.50;;;;;;4936151;29;20094;-78
2023/03/04 01:34:48;;;;;;;8.93;5.03;;;0.10;99.50;;;;;;4933178;29;20508;-79
2023/03/04 01:37:14;;;;;;;6.85;5.28;;;0.10;99.40;;;;;;4949193;29;20085;-78
2023/03/04 01:39:40;;;;;;;7.55;5.97;;;0.10;99.40;;;;;;4935987;29;20024;-78
2023/03/04 01:42:17;;;;;;;7.40;5.88;;;0.10;99.50;;;;;;4936722;29;20103;-77
2023/03/04 01:44:43;;;;;;;10.90;5.77;;;0.00;99.50;;;;;;4944078;29;20053;-79
2023/03/04 01:47:09;;;;;;;7.60;5.60;;;0.00;99.50;;;;;;4936034;29;20341;-79
2023/03/04 01:49:35;;;;;;;16.00;6.70;;;0.00;99.50;;;;;;4935399;29;20048;-79
2023/03/04 01:52:01;;;;;;;8.77;6.22;;;0.00;99.50;;;;;;4934834;29;20031;-77
2023/03/04 01:54:27;;;;;;;13.52;7.32;;;0.00;99.50;;;;;;4919153;29;20036;-77
2023/03/04 01:56:54;;;;;;;9.30;7.28;;;-0.10;99.60;;;;;;4936145;29;20110;-78
2023/03/04 01:59:23;;;;;;;8.95;7.43;;;-0.10;99.60;;;;;;4935263;29;20031;-79
2023/03/04 02:01:57;;;;;;;15.45;7.30;;;-0.10;99.60;;;;;;4935585;29;20098;-79
2023/03/04 02:04:30;;;;;;;9.32;7.28;;;-0.10;99.70;;;;;;4919225;29;20027;-79
2023/03/04 02:06:58;;;;;;;12.95;8.52;;;-0.20;99.70;;;;;;4935717;29;20382;-78
2023/03/04 02:09:24;;;;;;;8.50;7.18;;;-0.20;99.80;;;;;;4936116;29;20095;-77
2023/03/04 02:11:51;;;;;;;9.15;6.88;;;-0.20;99.90;;;;;;4922767;29;20030;-79
2023/03/04 02:14:18;;;;;;;11.00;7.50;;;-0.20;99.90;;;;;;4943607;29;20055;-79
2023/03/04 02:16:45;;;;;;;11.50;7.70;;;-0.20;99.90;;;;;;4935224;29;20075;-78
2023/03/04 02:19:52;;;;;;;11.77;7.60;;;-0.20;99.90;;;;;;4917919;29;20378;-79
2023/03/04 02:22:17;;;;;;;;;;;-0.30;99.90;;;;;;4928095;29;20051;-78
2023/03/04 02:24:59;;;;;;;9.45;6.90;;;-0.40;99.80;;;;;;4933843;29;20010;-78
2023/03/04 02:27:25;;;;;;;11.40;7.65;;;-0.50;99.90;;;;;;4916754;29;20389;-78
2023/03/04 02:29:51;;;;;;;12.63;6.93;;;-0.60;99.90;;;;;;4935196;29;20028;-78
2023/03/04 02:32:17;;;;;;;10.98;7.55;;;-0.60;99.90;;;;;;4934968;29;20024;-79
2023/03/04 02:34:48;;;;;;;8.48;5.90;;;-0.70;99.90;;;;;;4934675;29;20072;-80
2023/03/04 02:37:16;;;;;;;10.20;7.40;;;-0.70;99.90;;;;;;4934003;29;20020;-78
2023/03/04 02:39:45;;;;;;;11.48;7.07;;;-0.70;99.90;;;;;;4921493;29;20393;-78
2023/03/04 02:42:11;;;;;;;10.32;7.68;;;-0.70;99.90;;;;;;4938687;29;20028;-79
2023/03/04 02:44:45;;;;;;;14.07;8.40;;;-0.70;99.90;;;;;;4921365;29;20035;-79
2023/03/04 02:47:12;;;;;;;17.10;9.95;;;-0.70;99.90;;;;;;4952007;29;20030;-80
2023/03/04 02:49:40;;;;;;;15.38;7.97;;;-0.80;99.90;;;;;;4942244;29;20039;-79
2023/03/04 02:52:23;;;;;;;17.92;9.15;;;-0.90;99.90;;;;;;4952977;29;20028;-79
2023/03/04 02:54:49;;;;;;;12.93;8.35;;;-0.90;99.90;;;;;;4934874;29;20035;-79
2023/03/04 02:57:15;;;;;;;14.65;8.65;;;-0.90;99.90;;;;;;4939414;29;20027;-79
2023/03/04 02:59:42;;;;;;;16.33;8.90;;;-0.80;99.90;;;;;;4940373;29;20036;-78
2023/03/04 03:02:08;;;;;;;19.50;8.55;;;-0.70;99.90;;;;;;4942452;29;20100;-79
2023/03/04 03:04:36;;;;;;;15.15;8.77;;;-0.60;99.90;;;;;;4939115;29;20055;-78
2023/03/04 03:07:02;;;;;;;18.08;11.77;;;-0.60;99.90;;;;;;4937604;29;20028;-78
2023/03/04 03:09:28;;;;;;;15.48;8.68;;;-0.50;99.90;;;;;;4951755;29;20035;-79
2023/03/04 03:11:54;;;;;;;15.77;9.52;;;-0.50;99.90;;;;;;4938226;29;20079;-79
2023/03/04 03:14:20;;;;;;;14.60;9.15;;;-0.40;99.90;;;;;;4937495;29;20114;-78
2023/03/04 03:16:46;;;;;;;16.02;9.98;;;-0.40;99.90;;;;;;4933850;29;20020;-78
2023/03/04 03:19:12;;;;;;;21.33;9.98;;;-0.40;99.90;;;;;;4938173;29;20487;-79
2023/03/04 03:21:37;;;;;;;18.60;9.48;;;-0.30;99.90;;;;;;4939646;29;20076;-79
2023/03/04 03:24:03;;;;;;;14.38;9.55;;;-0.30;99.90;;;;;;4942201;29;20552;-79
2023/03/04 03:26:29;;;;;;;16.08;9.38;;;-0.30;99.90;;;;;;4937755;29;20374;-76
2023/03/04 03:28:55;;;;;;;14.52;8.70;;;-0.30;99.90;;;;;;4938596;29;20035;-79
2023/03/04 03:31:21;;;;;;;14.57;8.93;;;-0.30;99.90;;;;;;4937864;29;20056;-80
2023/03/04 03:33:47;;;;;;;17.77;10.00;;;-0.40;99.90;;;;;;4940806;29;20034;-78
2023/03/04 03:36:13;;;;;;;21.25;10.65;;;-0.50;99.90;;;;;;4948213;29;20113;-77
2023/03/04 03:38:39;;;;;;;18.33;9.07;;;-0.50;99.90;;;;;;4954908;29;20122;-78
2023/03/04 03:41:05;;;;;;;18.05;10.20;;;-0.60;99.90;;;;;;4965427;29;20024;-79
2023/03/04 03:43:30;;;;;;;17.17;9.15;;;-0.70;99.90;;;;;;4932910;29;20027;-78
2023/03/04 03:45:56;;;;;;;22.20;10.88;;;-0.80;99.90;;;;;;4939449;29;20393;-77
2023/03/04 03:48:22;;;;;;;17.20;9.60;;;-0.90;99.90;;;;;;4935745;29;20148;-79
2023/03/04 03:50:48;;;;;;;19.38;11.00;;;-0.90;99.90;;;;;;4937442;29;20040;-78
2023/03/04 03:53:14;;;;;;;16.90;9.05;;;-0.90;99.90;;;;;;4937332;29;20103;-79
2023/03/04 03:55:40;;;;;;;14.70;8.50;;;-0.90;99.90;;;;;;4937363;28;20099;-78
2023/03/04 03:58:06;;;;;;;15.57;7.57;;;-0.90;99.90;;;;;;4937371;29;20481;-79
2023/03/04 04:00:32;;;;;;;14.57;8.88;;;-0.90;99.90;;;;;;4937155;29;20034;-78
2023/03/04 04:02:59;;;;;;;11.80;7.15;;;-1.00;99.90;;;;;;4937016;29;20084;-77
2023/03/04 04:05:26;;;;;;;13.43;7.65;;;-0.90;99.90;;;;;;4936997;29;20028;-77
2023/03/04 04:07:52;;;;;;;16.45;7.55;;;-1.00;99.90;;;;;;4936834;29;20028;-78
2023/03/04 04:10:18;;;;;;;8.68;5.95;;;-1.10;99.90;;;;;;4936919;29;20023;-78
2023/03/04 04:12:43;;;;;;;12.57;6.88;;;-1.00;99.90;;;;;;4937028;29;20027;-78
2023/03/04 04:15:12;;;;;;;12.88;6.05;;;-1.10;99.90;;;;;;4937146;29;20034;-77
2023/03/04 04:17:38;;;;;;;10.35;5.97;;;-1.00;99.90;;;;;;4937164;29;20062;-79
2023/03/04 04:20:06;;;;;;;10.50;5.75;;;-1.00;99.90;;;;;;4950409;29;20028;-80
2023/03/04 04:22:32;;;;;;;11.30;5.80;;;-1.00;99.90;;;;;;4935926;29;20563;-80
2023/03/04 04:24:58;;;;;;;9.85;6.00;;;-0.90;99.90;;;;;;4936905;29;20027;-80
2023/03/04 04:27:24;;;;;;;9.95;5.88;;;-0.90;99.90;;;;;;4936998;29;20027;-80
2023/03/04 04:29:50;;;;;;;7.47;5.70;;;-0.90;99.90;;;;;;4944117;29;20079;-78
2023/03/04 04:32:16;;;;;;;9.60;5.72;;;-0.80;99.90;;;;;;4949219;29;20097;-81
2023/03/04 04:34:41;;;;;;;10.75;5.60;;;-0.80;99.90;;;;;;4946511;29;20020;-78
2023/03/04 04:37:07;;;;;;;11.32;6.72;;;-0.80;99.90;;;;;;4938019;29;20024;-80
2023/03/04 04:39:33;;;;;;;10.02;6.53;;;-0.80;99.90;;;;;;4935928;29;20366;-78
2023/03/04 04:41:59;;;;;;;10.38;6.57;;;-0.80;99.90;;;;;;4936686;29;20036;-80
2023/03/04 04:44:28;;;;;;;12.50;6.90;;;-0.90;99.90;;;;;;4937077;29;20023;-81
2023/03/04 04:46:54;;;;;;;8.80;5.75;;;-0.80;99.90;;;;;;4936918;29;20027;-81
2023/03/04 04:49:20;;;;;;;10.98;7.00;;;-0.80;99.90;;;;;;4941954;29;20086;-79
2023/03/04 04:51:46;;;;;;;8.82;5.43;;;-0.80;99.90;;;;;;4951369;29;20034;-81
2023/03/04 04:54:14;;;;;;;10.57;6.43;;;-0.80;99.90;;;;;;4940297;29;20378;-81
2023/03/04 04:56:39;;;;;;;11.23;7.18;;;-0.80;99.90;;;;;;4940186;29;20425;-79
2023/03/04 04:59:07;;;;;;;9.07;6.78;;;-0.80;99.90;;;;;;4939913;29;20186;-80
2023/03/04 05:01:33;;;;;;;10.77;7.43;;;-0.80;99.90;;;;;;4939351;29;20030;-80
2023/03/04 05:03:59;;;;;;;10.23;5.90;;;-0.70;99.90;;;;;;4939579;29;20103;-77
2023/03/04 05:06:25;;;;;;;6.60;5.60;;;-0.60;99.90;;;;;;4954154;29;20051;-78
2023/03/04 05:08:51;;;;;;;10.27;6.00;;;-0.60;99.90;;;;;;4942757;29;20063;-79
2023/03/04 05:11:18;;;;;;;9.80;5.97;;;-0.50;99.90;;;;;;4939584;29;20051;-79
2023/03/04 05:13:45;;;;;;;11.87;5.33;;;-0.40;99.90;;;;;;4921431;29;20614;-79
2023/03/04 05:16:12;;;;;;;8.02;5.53;;;-0.40;99.90;;;;;;4937742;29;20262;-78
2023/03/04 05:18:38;;;;;;;12.50;6.28;;;-0.30;99.90;;;;;;4937409;29;20093;-79
2023/03/04 05:21:04;;;;;;;9.00;5.32;;;-0.20;99.90;;;;;;4937159;29;20051;-80
2023/03/04 05:23:37;;;;;;;11.80;5.75;;;-0.10;99.90;;;;;;4938988;29;20071;-78
2023/03/04 05:26:04;;;;;;;8.23;5.32;;;-0.10;99.90;;;;;;4937043;29;20119;-80
2023/03/04 05:28:31;;;;;;;9.15;4.95;;;0.00;99.90;;;;;;4936180;29;20465;-78
2023/03/04 05:30:57;;;;;;;9.40;5.20;;;0.00;99.90;;;;;;4936400;29;20046;-78
2023/03/04 05:33:23;;;;;;;10.15;4.55;;;0.10;99.90;;;;;;4936367;29;20032;-80
2023/03/04 05:35:49;;;;;;;8.45;5.22;;;0.00;99.90;;;;;;4934748;29;20035;-80
2023/03/04 05:38:17;;;;;;;6.70;4.65;;;0.10;99.90;;;;;;4936417;29;20023;-79
2023/03/04 05:40:44;;;;;;;7.60;4.43;;;0.10;99.90;;;;;;4936284;29;20092;-79
2023/03/04 05:43:10;;;;;;;6.88;4.97;;;0.20;99.90;;;;;;4937620;29;20123;-79
2023/03/04 05:45:36;;;;;;;9.50;5.40;;;0.30;99.90;;;;;;4934709;29;20398;-80
2023/03/04 05:48:03;;;;;;;7.05;4.75;;;0.40;99.90;;;;;;4941821;29;20039;-79
2023/03/04 05:50:29;;;;;;;6.75;4.50;;;0.50;99.90;;;;;;4924042;29;20035;-78
2023/03/04 05:53:27;;;;;;;5.68;4.13;;;0.60;99.90;;;;;;4935417;29;20028;-80
2023/03/04 05:55:53;;;;;;;7.30;4.88;;;0.60;99.90;;;;;;4934589;29;20078;-79
2023/03/04 05:58:20;;;;;;;7.75;5.07;;;0.50;99.90;;;;;;4918050;29;20044;-79
2023/03/04 06:00:46;;;;;;;5.47;4.20;;;0.50;99.90;;;;;;4935305;29;20031;-78
2023/03/04 06:03:20;;;;;;;7.00;4.15;;;0.60;99.90;;;;;;4919665;29;20031;-79
2023/03/04 06:05:46;;;;;;;7.97;4.97;;;0.80;99.90;;;;;;4938065;29;20111;-79
2023/03/04 06:08:12;;;;;;;7.78;5.22;;;0.80;99.70;;;;;;4935740;29;20095;-79
2023/03/04 06:10:40;;;;;;;9.00;5.32;;;0.90;99.50;;;;;;4938990;29;20155;-78
2023/03/04 06:13:06;;;;;;;7.25;4.07;;;1.00;99.40;;;;;;4956961;29;20004;-78
2023/03/04 06:15:32;;;;;;;6.18;4.03;;;1.00;99.20;;;;;;4943686;29;20038;-78
2023/03/04 06:17:58;;;;;;;5.88;4.55;;;0.90;98.90;;;;;;4935159;29;20035;-79
2023/03/04 06:20:24;;;;;;;7.57;4.57;;;0.80;99.00;;;;;;4934463;29;20078;-77
2023/03/04 06:22:50;;;;;;;7.95;4.68;;;0.90;99.10;;;;;;4939189;29;20032;-79
2023/03/04 06:25:16;;;;;;;8.73;6.10;;;0.90;99.00;;;;;;4919651;29;20397;-79
2023/03/04 06:27:42;;;;;;;10.43;4.72;;;1.00;98.80;;;;;;4936042;29;20034;-79
2023/03/04 06:30:08;;;;;;;7.25;4.10;;;1.20;98.90;;;;;;4935417;29;20079;-80
2023/03/04 06:32:34;;;;;;;4.80;4.30;;;1.30;98.30;;;;;;4935409;29;20024;-78
2023/03/04 06:35:00;;;;;;;8.68;4.35;;;1.30;98.10;;;;;;4934994;29;20042;-79
2023/03/04 06:37:26;;;;;;;6.80;4.05;;;1.30;98.10;;;;;;4934454;29;20039;-79
2023/03/04 06:39:52;;;;;;;7.88;4.93;;;1.40;98.00;;;;;;4918824;29;20027;-78
2023/03/04 06:42:18;;;;;;;8.32;4.25;;;1.40;97.70;;;;;;4918059;29;20035;-80
2023/03/04 06:44:44;;;;;;;6.30;4.43;;;1.30;97.50;;;;;;4935535;29;20493;-78
2023/03/04 06:47:10;;;;;;;8.95;4.97;;;1.30;97.70;;;;;;4935501;29;20111;-77
2023/03/04 06:49:36;;;;;;;9.82;5.28;;;1.40;97.70;;;;;;4935437;29;20610;-79
2023/03/04 06:52:02;;;;;;;6.93;5.10;;;1.40;97.50;;;;;;4918807;29;20096;-79
2023/03/04 06:54:28;;;;;;;6.65;4.43;;;1.40;97.30;;;;;;4934376;29;20512;-78
2023/03/04 06:56:54;;;;;;;6.60;4.55;;;1.40;97.20;;;;;;4935876;29;20047;-78
2023/03/04 06:59:21;;;;;;;6.55;5.68;;;1.40;97.20;;;;;;4935625;29;20027;-78
2023/03/04 07:01:47;;;;;;;7.88;5.82;;;1.40;97.30;;;;;;4935160;29;20038;-80
2023/03/04 07:04:13;;;;;;;9.35;5.18;;;1.40;97.50;;;;;;4935061;29;20028;-78
2023/03/04 07:06:39;;;;;;;6.28;4.75;;;1.50;97.30;;;;;;4935328;29;20059;-78
2023/03/04 07:09:05;;;;;;;7.20;5.70;;;1.60;97.30;;;;;;4935020;29;20047;-76
2023/03/04 07:11:31;;;;;;;8.95;4.63;;;1.70;97.20;;;;;;4941172;29;20386;-79
2023/03/04 07:13:57;;;;;;;7.35;4.35;;;1.80;97.10;;;;;;4948630;29;20050;-77
2023/03/04 07:16:23;;;;;;;5.97;4.60;;;1.70;96.50;;;;;;4925744;29;20030;-78
2023/03/04 07:18:49;;;;;;;8.95;4.68;;;1.70;96.70;;;;;;4939590;29;20042;-80
2023/03/04 07:21:16;;;;;;;7.65;4.65;;;1.70;96.70;;;;;;4938174;29;20033;-79
2023/03/04 07:23:42;;;;;;;6.15;5.03;;;1.80;96.70;;;;;;4922037;29;20115;-79
2023/03/04 07:26:08;;;;;;;9.63;4.90;;;1.90;96.70;;;;;;4939586;29;20020;-78
2023/03/04 07:28:35;;;;;;;6.43;4.68;;;2.00;96.60;;;;;;4951960;29;20043;-79
2023/03/04 07:31:28;;;;;;;6.90;4.60;;;2.10;96.60;;;;;;4922161;29;20024;-79
2023/03/04 07:34:00;;;;;;;6.20;3.90;;;2.00;96.40;;;;;;4952824;29;20059;-79
2023/03/04 07:36:26;;;;;;;4.40;3.88;;;2.00;96.60;;;;;;4938130;29;20067;-79
2023/03/04 07:38:55;;;;;;;8.00;4.88;;;1.80;96.50;;;;;;4941706;29;20063;-82
2023/03/04 07:41:23;;;;;;;9.82;7.03;;;1.40;97.50;;;;;;4945155;29;20028;-79
2023/03/04 07:43:50;;;;;;;12.30;7.40;;;1.20;98.60;;;;;;4941889;29;20028;-80
2023/03/04 07:46:16;;;;;;;9.90;6.03;;;1.10;98.80;;;;;;4923574;29;20524;-79
2023/03/04 07:48:42;;;;;;;8.82;5.13;;;1.10;99.20;;;;;;4939916;29;20032;-80
2023/03/04 07:51:11;;;;;;;6.43;4.85;;;1.20;99.30;;;;;;4952088;29;20103;-79
2023/03/04 07:53:39;;;;;;;7.35;4.57;;;1.20;99.30;;;;;;4939020;29;20031;-80
2023/03/04 07:56:06;;;;;;;6.88;4.47;;;1.00;99.30;;;;;;4941499;29;20071;-79
2023/03/04 07:58:32;;;;;;;5.50;4.72;;;0.90;99.60;;;;;;4940018;29;20086;-79
2023/03/04 08:00:58;;;;;;;10.50;4.78;;;0.90;99.80;;;;;;4937728;29;20035;-79
2023/03/04 08:03:25;;;;;;;7.55;4.78;;;1.20;99.90;;;;;;4938768;29;20050;-79
2023/03/04 08:05:51;;;;;;;4.93;3.85;;;1.10;99.40;;;;;;4938751;29;20106;-80
2023/03/04 08:08:17;;;;;;;10.68;3.83;;;1.00;99.50;;;;;;4939547;29;20549;-80
2023/03/04 08:10:46;;;;;;;8.10;4.75;;;1.00;99.70;;;;;;4952097;29;20027;-79
2023/03/04 08:13:14;;;;;;;4.85;4.00;;;1.10;99.90;;;;;;4933613;29;20024;-78
2023/03/04 08:15:41;;;;;;;6.13;4.32;;;1.10;99.40;;;;;;4931558;29;20020;-79
2023/03/04 08:18:07;;;;;;;5.77;4.93;;;0.90;99.40;;;;;;4940668;29;20027;-78
2023/03/04 08:20:33;;;;;;;5.60;4.53;;;0.90;99.80;;;;;;4938420;29;20325;-81
2023/03/04 08:24:12;;;;;;;;;;;;;;;;;;;;;
2023/03/04 08:27:17;;;;;;;;;;;;;;;;;;;;;
2023/03/04 08:29:43;;;;;;;5.53;3.78;;;1.40;98.90;;;;;;4852708;29;20059;-79
2023/03/04 08:32:12;;;;;;;4.50;2.90;;;1.30;98.80;;;;;;4844965;29;20148;-77
2023/03/04 08:34:39;;;;;;;5.75;4.38;;;1.20;98.80;;;;;;4842405;29;20068;-78
2023/03/04 08:37:06;;;;;;;7.65;4.72;;;1.10;98.60;;;;;;4829770;29;20061;-78
2023/03/04 08:39:34;;;;;;;7.68;4.72;;;1.20;99.10;;;;;;4846099;29;20030;-78
2023/03/04 08:42:00;;;;;;;5.82;3.95;;;1.40;99.20;;;;;;4851102;29;20029;-80
2023/03/04 08:44:41;;;;;;;6.95;4.05;;;1.50;98.70;;;;;;4853567;29;20044;-81
2023/03/04 08:47:09;;;;;;;5.95;3.53;;;1.50;98.10;;;;;;4862018;29;20038;-80
2023/03/04 08:49:52;;;;;;;5.10;3.13;;;1.30;98.40;;;;;;4854515;29;20065;-80
2023/03/04 08:52:51;;;;;;;6.38;3.78;;;1.20;98.50;;;;;;4831244;29;20022;-79
2023/03/04 08:55:17;;;;;;;5.63;3.25;;;1.20;98.60;;;;;;4840253;29;20469;-80
2023/03/04 08:57:43;;;;;;;5.43;3.65;;;1.20;98.70;;;;;;4840771;29;20049;-80
2023/03/04 09:00:10;;;;;;;4.38;3.03;;;1.10;98.70;;;;;;4840800;29;20042;-79
2023/03/04 09:13:13;;;;;;;;;;;;;;;;;;;;;
2023/03/04 09:18:59;;;;;;;4.60;2.90;;;2.50;99.90;;;;;;4777526;29;20049;-80
2023/03/04 09:25:48;;;;;;;;;;;;;;;;;;;;;
2023/03/04 09:31:38;;;;;;;5.00;2.90;;;6.60;90.50;;;;;;4782034;29;20046;-79
2023/03/04 09:34:25;;;;;;;5.28;3.08;;;5.60;87.30;;;;;;4823548;29;20034;-80
2023/03/04 09:36:51;;;;;;;5.72;3.90;;;4.60;90.40;;;;;;4819219;29;20035;-79
2023/03/04 09:39:17;;;;;;;4.40;2.92;;;4.20;91.50;;;;;;4806455;29;20568;-80
2023/03/04 09:41:46;;;;;;;6.03;4.13;;;3.90;91.20;;;;;;4789124;29;20088;-80
2023/03/04 09:44:26;;;;;;;6.72;3.25;;;3.60;91.90;;;;;;4812404;29;20029;-79
2023/03/04 09:46:57;;;;;;;4.57;2.70;;;3.50;91.80;;;;;;4862781;29;20048;-79
2023/03/04 09:49:24;;;;;;;3.30;2.42;;;3.10;91.50;;;;;;4862722;29;20037;-79
2023/03/04 09:52:02;;;;;;;4.27;3.13;;;2.70;91.80;;;;;;4942276;28;20039;-79
2023/03/04 09:55:00;;;;;;;4.65;2.95;;;2.40;92.40;;;;;;4949453;28;20318;-79
2023/03/04 09:57:34;;;;;;;2.38;1.92;;;2.40;93.00;;;;;;4951319;28;20023;-79
2023/03/04 10:00:23;;;;;;;3.25;2.17;;;2.60;92.80;;;;;;4947793;28;20101;-79
2023/03/04 10:03:14;;;;;;;2.55;1.90;;;2.80;92.60;;;;;;4972275;28;20650;-80
2023/03/04 10:06:00;;;;;;;3.05;2.25;;;2.80;92.10;;;;;;4957391;28;20042;-79
2023/03/04 10:08:49;;;;;;;3.30;2.33;;;2.70;92.10;;;;;;4948545;28;20047;-79
2023/03/04 10:11:23;;;;;;;4.57;2.60;;;2.90;91.80;;;;;;4974693;28;20420;-80
2023/03/04 10:14:31;;;;;;;4.75;3.05;;;3.00;91.80;;;;;;4976090;28;20110;-79
2023/03/04 10:17:12;;;;;;;5.38;3.85;;;3.30;92.00;;;;;;4925832;28;20038;-81
2023/03/04 10:20:00;;;;;;;3.42;2.05;;;3.70;91.50;;;;;;4973491;28;20027;-80
2023/03/04 10:22:35;;;;;;;4.50;2.97;;;3.90;90.70;;;;;;4975563;28;20073;-80
2023/03/04 10:25:13;;;;;;;5.57;3.63;;;3.70;90.10;;;;;;4975692;28;20109;-80
2023/03/04 10:27:41;;;;;;;4.55;2.63;;;3.60;90.60;;;;;;4957091;28;20027;-79
2023/03/04 10:30:25;;;;;;;5.32;4.10;;;3.60;90.40;;;;;;4973219;28;20448;-81
2023/03/04 10:32:51;;;;;;;4.45;2.83;;;3.50;90.80;;;;;;4975051;28;20023;-80
2023/03/04 10:35:19;;;;;;;4.38;3.22;;;3.60;90.70;;;;;;4975713;28;20531;-79
2023/03/04 10:37:49;;;;;;;4.88;3.35;;;3.80;90.60;;;;;;4968121;28;20114;-83
2023/03/04 10:40:25;;;;;;;5.00;2.80;;;3.50;90.10;;;;;;4954013;28;20030;-86
2023/03/04 10:42:55;;;;;;;6.03;3.00;;;3.30;90.50;;;;;;4970890;28;20540;-83
2023/03/04 10:45:29;;;;;;;3.50;2.78;;;3.30;91.20;;;;;;4971881;28;20027;-84
2023/03/04 10:47:57;;;;;;;5.65;3.88;;;3.30;91.60;;;;;;4960288;28;20035;-82
2023/03/04 10:50:24;;;;;;;;;;;3.20;92.00;;;;;;4960948;28;20049;-80
2023/03/04 10:52:52;;;;;;;5.32;3.55;;;3.10;92.40;;;;;;4979835;28;19910;-81
2023/03/04 10:55:23;;;;;;;6.35;4.10;;;3.00;93.00;;;;;;4990402;28;20019;-80
2023/03/04 10:58:14;;;;;;;6.47;3.78;;;3.00;93.20;;;;;;4970933;28;20035;-84
2023/03/04 11:00:40;;;;;;;6.85;4.85;;;2.60;93.90;;;;;;4977956;28;20098;-83
2023/03/04 11:03:35;;;;;;;12.48;4.93;;;2.20;94.80;;;;;;4984794;28;20054;-84
2023/03/04 11:06:24;;;;;;;7.53;4.13;;;2.10;95.50;;;;;;4982274;28;20110;-82
2023/03/04 11:08:58;;;;;;;5.32;4.50;;;2.10;95.70;;;;;;4985890;28;20058;-83
2023/03/04 11:11:43;;;;;;;10.30;4.57;;;1.80;96.30;;;;;;4962630;28;20022;-81
2023/03/04 11:14:37;;;;;;;7.10;4.65;;;1.60;97.20;;;;;;4990188;28;20015;-82
2023/03/04 11:17:19;;;;;;;6.20;3.75;;;1.60;97.90;;;;;;4970123;28;20027;-82
2023/03/04 11:19:54;;;;;;;5.95;4.88;;;1.50;98.20;;;;;;4971476;28;20060;-81
2023/03/04 11:22:22;;;;;;;5.35;3.47;;;1.50;98.70;;;;;;4994146;28;20023;-80
2023/03/04 11:25:15;;;;;;;6.50;4.68;;;1.50;99.00;;;;;;4979950;28;20034;-81
2023/03/04 11:27:46;;;;;;;7.32;4.38;;;1.60;99.10;;;;;;4939672;28;20031;-80
2023/03/04 11:30:37;;;;;;;6.97;3.78;;;1.70;99.10;;;;;;4966584;28;20026;-79
2023/03/04 11:33:10;;;;;;;6.60;3.80;;;1.80;98.70;;;;;;4981251;28;20066;-81
2023/03/04 11:35:43;;;;;;;6.05;4.35;;;1.90;98.40;;;;;;4982181;28;20023;-90
2023/03/04 11:38:53;;;;;;;9.57;4.93;;;1.90;98.40;;;;;;4990753;28;20034;-87
2023/03/04 11:41:37;;;;;;;13.40;5.03;;;1.90;98.50;;;;;;4972645;28;20099;-89
2023/03/04 11:44:05;;;;;;;8.48;3.40;;;2.00;98.50;;;;;;4985913;28;20042;-86
2023/03/04 11:46:59;;;;;;;6.90;4.05;;;2.00;98.60;;;;;;4967387;28;20026;-87
2023/03/04 11:49:55;;;;;;;4.03;3.17;;;1.70;98.90;;;;;;4970610;28;20039;-87
2023/03/04 11:52:59;;;;;;;7.60;4.90;;;1.40;99.30;;;;;;4972536;28;20023;-88
2023/03/04 11:55:30;;;;;;;8.40;4.25;;;1.10;99.90;;;;;;4974063;28;20261;-90
2023/03/04 11:58:18;;;;;;;7.60;4.10;;;0.90;99.90;;;;;;4996180;28;20023;-85
2023/03/04 12:00:52;;;;;;;5.32;3.85;;;0.80;99.90;;;;;;4977902;28;20046;-87
2023/03/04 12:03:54;;;;;;;7.63;4.28;;;0.60;99.90;;;;;;4970192;28;20019;-86
2023/03/04 12:06:45;;;;;;;6.15;4.25;;;0.60;99.90;;;;;;4963836;28;20035;-87
2023/03/04 12:09:48;;;;;;;5.63;3.55;;;0.50;99.90;;;;;;4966156;28;20110;-87
2023/03/04 12:12:55;;;;;;;8.02;4.50;;;0.60;99.90;;;;;;4963357;28;20039;-86
2023/03/04 12:15:33;;;;;;;9.35;3.60;;;0.60;99.90;;;;;;4972853;28;20368;-87
2023/03/04 12:18:22;;;;;;;6.43;4.57;;;0.60;99.90;;;;;;4964887;28;20035;-84
2023/03/04 12:21:05;;;;;;;7.53;4.00;;;0.50;99.90;;;;;;4971590;28;20047;-86
2023/03/04 12:24:08;;;;;;;10.00;4.63;;;0.40;99.90;;;;;;4984894;28;20045;-85
2023/03/04 12:26:56;;;;;;;9.00;5.03;;;0.50;99.90;;;;;;4969372;28;20075;-85
2023/03/04 12:29:31;;;;;;;8.85;5.20;;;0.50;99.90;;;;;;4969433;28;20027;-85
2023/03/04 12:32:28;;;;;;;14.38;6.80;;;0.60;99.90;;;;;;4962139;28;20029;-85
2023/03/04 12:35:22;;;;;;;6.97;5.05;;;0.70;99.90;;;;;;4966744;28;20023;-86
2023/03/04 12:38:11;;;;;;;7.03;5.38;;;0.70;99.90;;;;;;4950098;28;20122;-86
2023/03/04 12:41:16;;;;;;;9.07;4.68;;;0.70;99.90;;;;;;4992600;28;20018;-86
2023/03/04 12:44:19;;;;;;;6.60;4.82;;;0.70;99.90;;;;;;4956845;28;20066;-82
2023/03/04 12:47:10;;;;;;;7.85;5.72;;;0.60;99.90;;;;;;4982169;28;20027;-83
2023/03/04 12:49:39;;;;;;;11.45;6.78;;;0.70;99.90;;;;;;4982110;28;20031;-82
2023/03/04 12:52:23;;;;;;;10.43;5.90;;;0.80;99.90;;;;;;4978282;28;20090;-82
2023/03/04 12:54:54;;;;;;;10.23;4.97;;;0.80;99.90;;;;;;4979968;28;20023;-81
2023/03/04 12:57:23;;;;;;;8.77;4.88;;;0.70;99.90;;;;;;4980795;28;20023;-78
2023/03/04 12:59:58;;;;;;;10.30;6.28;;;0.70;99.90;;;;;;4960949;28;20496;-84
2023/03/04 13:02:47;;;;;;;8.50;6.32;;;0.70;99.90;;;;;;4960897;28;20157;-85
2023/03/04 13:05:22;;;;;;;9.55;6.35;;;0.70;99.90;;;;;;4949708;28;20034;-85
2023/03/04 13:07:53;;;;;;;9.23;6.55;;;0.70;99.90;;;;;;4976335;28;20027;-85
2023/03/04 13:10:20;;;;;;;11.65;7.03;;;0.70;99.90;;;;;;4976364;28;20082;-82
2023/03/04 13:12:55;;;;;;;12.60;9.23;;;0.60;99.90;;;;;;4980767;28;20468;-85
2023/03/04 13:15:21;;;;;;;13.05;9.43;;;0.60;99.90;;;;;;4969103;28;20102;-83
2023/03/04 13:18:09;;;;;;;12.18;7.57;;;0.70;99.90;;;;;;4981942;28;20043;-84
2023/03/04 13:20:41;;;;;;;;;;;0.70;99.90;;;;;;4989197;28;20023;-86
2023/03/04 13:23:13;;;;;;;12.93;8.77;;;0.70;99.90;;;;;;4976831;28;19913;-87
2023/03/04 13:25:44;;;;;;;15.50;9.60;;;0.70;99.90;;;;;;4966160;28;20018;-85
2023/03/04 13:28:11;;;;;;;15.75;10.57;;;0.70;99.90;;;;;;4966968;28;20042;-88
2023/03/04 13:30:37;;;;;;;;;;;0.70;99.90;;;;;;4981778;28;20018;-87
2023/03/04 13:33:14;;;;;;;19.50;11.88;;;0.70;99.90;;;;;;4978178;28;19913;-85
2023/03/04 13:36:02;;;;;;;14.93;10.30;;;0.60;99.90;;;;;;4965896;28;20014;-81
2023/03/04 13:38:33;;;;;;;13.63;9.68;;;0.60;99.90;;;;;;4978436;28;20058;-86
2023/03/04 13:41:14;;;;;;;13.70;10.65;;;0.70;99.90;;;;;;4959356;28;20859;-85